createdAt,value
2022-10-17T00:00:14.246Z,35.87
2022-10-17T00:02:44.351Z,34.93
2022-10-17T00:05:13.640Z,36.50
2022-10-17T00:07:44.466Z,40.00
2022-10-17T00:10:13.867Z,36.90
2022-10-17T00:12:43.014Z,34.00
2022-10-17T00:15:16.190Z,34.13
2022-10-17T00:17:46.039Z,36.07
2022-10-17T00:20:15.821Z,34.13
2022-10-17T00:22:46.631Z,36.20
2022-10-17T00:25:15.992Z,35.17
2022-10-17T00:27:45.580Z,35.00
2022-10-17T00:30:16.576Z,34.93
2022-10-17T00:32:46.066Z,33.13
2022-10-17T00:35:15.388Z,34.90
2022-10-17T00:37:46.320Z,35.93
2022-10-17T00:40:15.758Z,33.37
2022-10-17T00:42:45.429Z,32.50
2022-10-17T00:45:20.027Z,33.40
2022-10-17T00:47:52.497Z,33.47
2022-10-17T00:50:22.132Z,34.27
2022-10-17T00:52:52.702Z,33.00
2022-10-17T00:55:24.812Z,32.50
2022-10-17T00:57:55.599Z,31.90
2022-10-17T01:00:26.107Z,31.57
2022-10-17T01:02:59.066Z,33.13
2022-10-17T01:05:28.649Z,32.53
2022-10-17T01:08:00.837Z,31.53
2022-10-17T01:10:34.628Z,30.30
2022-10-17T01:13:12.780Z,31.90
2022-10-17T01:15:50.412Z,29.80
2022-10-17T01:18:29.037Z,32.23
2022-10-17T01:21:19.893Z,35.73
2022-10-17T01:24:33.843Z,32.57
2022-10-17T01:27:31.455Z,31.20
2022-10-17T01:30:32.412Z,29.93
2022-10-17T01:33:07.951Z,32.37
2022-10-17T01:35:41.409Z,32.43
2022-10-17T01:38:13.850Z,29.50
2022-10-17T01:40:45.576Z,31.70
2022-10-17T01:43:18.647Z,33.73
2022-10-17T01:45:51.804Z,33.90
2022-10-17T01:48:25.176Z,30.37
2022-10-17T01:50:57.126Z,32.77
2022-10-17T01:53:30.665Z,29.40
2022-10-17T01:56:02.224Z,29.50
2022-10-17T01:58:34.719Z,30.90
2022-10-17T02:01:07.658Z,28.53
2022-10-17T02:03:38.832Z,31.43
2022-10-17T02:06:08.839Z,29.57
2022-10-17T02:08:43.828Z,31.77
2022-10-17T02:11:16.976Z,32.17
2022-10-17T02:16:48.202Z,30.23
2022-10-17T02:19:47.496Z,31.40
2022-10-17T02:22:25.012Z,31.00
2022-10-17T02:24:59.595Z,36.43
2022-10-17T02:27:36.726Z,33.77
2022-10-17T02:30:10.271Z,35.47
2022-10-17T02:32:46.698Z,36.70
2022-10-17T02:35:21.955Z,33.90
2022-10-17T02:37:53.428Z,38.10
2022-10-17T02:40:24.334Z,33.00
2022-10-17T02:42:55.151Z,38.50
2022-10-17T02:45:26.056Z,37.77
2022-10-17T02:48:00.793Z,34.70
2022-10-17T02:50:39.491Z,33.93
2022-10-17T02:53:13.195Z,33.87
2022-10-17T02:55:47.734Z,33.27
2022-10-17T02:58:20.315Z,36.90
2022-10-17T03:00:49.873Z,37.40
2022-10-17T03:03:24.804Z,40.80
2022-10-17T03:05:56.623Z,38.70
2022-10-17T03:08:26.027Z,37.03
2022-10-17T03:10:55.412Z,32.30
2022-10-17T03:13:25.112Z,36.43
2022-10-17T03:15:54.399Z,34.13
2022-10-17T03:18:23.673Z,32.23
2022-10-17T03:20:54.659Z,33.07
2022-10-17T03:23:24.291Z,33.50
2022-10-17T03:25:53.618Z,32.97
2022-10-17T03:28:22.889Z,31.67
2022-10-17T03:30:52.517Z,31.67
2022-10-17T03:33:21.792Z,33.13
2022-10-17T03:35:52.361Z,31.50
2022-10-17T03:38:23.070Z,33.13
2022-10-17T03:40:57.252Z,29.57
2022-10-17T03:43:26.694Z,31.40
2022-10-17T03:45:56.261Z,32.57
2022-10-17T03:48:26.991Z,29.70
2022-10-17T03:51:01.459Z,29.20
2022-10-17T03:53:32.448Z,33.87
2022-10-17T03:56:11.749Z,35.93
2022-10-17T03:58:42.084Z,33.77
2022-10-17T04:01:13.308Z,30.00
2022-10-17T04:03:43.258Z,30.13
2022-10-17T04:06:13.947Z,29.27
2022-10-17T04:08:44.650Z,31.37
2022-10-17T04:11:17.375Z,30.00
2022-10-17T04:13:47.397Z,26.77
2022-10-17T04:16:18.387Z,26.23
2022-10-17T04:18:47.972Z,28.17
2022-10-17T04:21:18.379Z,29.17
2022-10-17T04:23:49.071Z,26.70
2022-10-17T04:26:18.495Z,28.03
2022-10-17T04:28:47.861Z,27.00
2022-10-17T04:31:17.127Z,27.90
2022-10-17T04:33:48.930Z,25.03
2022-10-17T04:36:19.698Z,25.27
2022-10-17T04:38:50.684Z,24.73
2022-10-17T04:41:20.982Z,25.00
2022-10-17T04:43:51.444Z,29.07
2022-10-17T04:46:21.143Z,25.53
2022-10-17T04:48:50.593Z,25.23
2022-10-17T04:51:23.068Z,25.40
2022-10-17T04:53:57.121Z,23.83
2022-10-17T04:56:27.451Z,23.10
2022-10-17T04:58:56.741Z,23.63
2022-10-17T05:01:26.263Z,26.97
2022-10-17T05:03:56.083Z,25.47
2022-10-17T05:06:28.258Z,25.03
2022-10-17T05:09:03.169Z,30.93
2022-10-17T05:11:34.480Z,22.80
2022-10-17T05:14:04.972Z,24.67
2022-10-17T05:16:34.381Z,22.53
2022-10-17T05:19:04.369Z,23.20
2022-10-17T05:21:34.254Z,22.30
2022-10-17T05:24:07.945Z,23.10
2022-10-17T05:26:38.759Z,23.60
2022-10-17T05:29:08.286Z,23.37
2022-10-17T05:31:37.762Z,22.17
2022-10-17T05:34:09.132Z,24.30
2022-10-17T05:36:41.166Z,28.63
2022-10-17T05:39:13.550Z,21.83
2022-10-17T05:41:43.310Z,26.97
2022-10-17T05:44:12.236Z,24.40
2022-10-17T05:46:41.262Z,23.43
2022-10-17T05:49:25.190Z,24.43
2022-10-17T05:52:01.087Z,23.43
2022-10-17T05:54:35.100Z,22.40
2022-10-17T05:57:04.364Z,22.93
2022-10-17T05:59:34.057Z,23.73
2022-10-17T06:02:03.594Z,20.87
2022-10-17T06:04:32.919Z,21.37
2022-10-17T06:07:02.308Z,21.87
2022-10-17T06:09:33.061Z,21.57
2022-10-17T06:12:02.404Z,22.60
2022-10-17T06:14:33.361Z,22.80
2022-10-17T06:17:02.662Z,19.90
2022-10-17T06:19:34.688Z,28.87
2022-10-17T06:22:03.997Z,41.53
2022-10-17T06:24:34.818Z,25.03
2022-10-17T06:27:08.027Z,25.60
2022-10-17T06:29:41.274Z,26.57
2022-10-17T06:32:12.774Z,31.63
2022-10-17T06:34:45.550Z,34.03
2022-10-17T06:37:15.216Z,32.90
2022-10-17T06:39:45.943Z,34.00
2022-10-17T06:42:17.201Z,30.20
2022-10-17T06:44:49.561Z,29.60
2022-10-17T06:47:20.034Z,26.47
2022-10-17T06:49:49.581Z,27.20
2022-10-17T06:52:18.872Z,28.37
2022-10-17T06:54:49.751Z,27.53
2022-10-17T06:57:19.117Z,26.47
2022-10-17T06:59:48.462Z,29.03
2022-10-17T07:02:17.967Z,28.00
2022-10-17T07:04:50.760Z,30.87
2022-10-17T07:07:20.385Z,28.93
2022-10-17T07:09:52.665Z,28.40
2022-10-17T07:12:22.515Z,29.03
2022-10-17T07:14:52.147Z,27.83
2022-10-17T07:17:21.591Z,27.30
2022-10-17T07:19:50.559Z,26.77
2022-10-17T07:22:19.618Z,28.60
2022-10-17T07:27:27.614Z,26.77
2022-10-17T07:29:59.120Z,24.13
2022-10-17T07:32:29.084Z,24.83
2022-10-17T07:34:58.347Z,28.30
2022-10-17T07:37:27.978Z,25.10
2022-10-17T07:39:59.473Z,25.37
2022-10-17T07:42:29.082Z,24.37
2022-10-17T07:44:58.515Z,25.30
2022-10-17T07:47:28.007Z,25.67
2022-10-17T07:49:57.381Z,25.97
2022-10-17T07:52:27.937Z,25.53
2022-10-17T07:54:58.825Z,26.50
2022-10-17T07:57:28.288Z,25.50
2022-10-17T07:59:57.871Z,29.23
2022-10-17T08:02:28.820Z,28.80
2022-10-17T08:04:58.660Z,24.77
2022-10-17T08:07:29.434Z,25.37
2022-10-17T08:10:02.669Z,25.90
2022-10-17T08:12:34.423Z,25.20
2022-10-17T08:15:04.148Z,25.70
2022-10-17T08:17:33.470Z,29.80
2022-10-17T08:20:02.430Z,27.10
2022-10-17T08:22:33.023Z,27.03
2022-10-17T08:25:03.742Z,24.37
2022-10-17T08:27:34.694Z,23.67
2022-10-17T08:30:04.484Z,25.23
2022-10-17T08:32:34.060Z,27.67
2022-10-17T08:35:04.402Z,28.97
2022-10-17T08:37:34.038Z,27.03
2022-10-17T08:40:06.054Z,28.33
2022-10-17T08:43:02.879Z,25.10
2022-10-17T08:45:35.271Z,32.87
2022-10-17T08:48:07.479Z,26.23
2022-10-17T08:50:39.883Z,24.13
2022-10-17T08:53:16.184Z,26.17
2022-10-17T08:55:49.174Z,24.73
2022-10-17T08:58:24.404Z,30.43
2022-10-17T09:01:02.449Z,26.60
2022-10-17T09:03:46.930Z,27.43
2022-10-17T09:06:24.539Z,25.50
2022-10-17T09:09:04.850Z,27.90
2022-10-17T09:11:45.384Z,25.03
2022-10-17T09:14:33.379Z,25.60
2022-10-17T09:17:13.738Z,27.80
2022-10-17T09:19:46.547Z,28.77
2022-10-17T09:22:20.252Z,28.30
2022-10-17T09:24:54.835Z,27.93
2022-10-17T09:27:28.079Z,28.00
2022-10-17T09:30:03.168Z,26.27
2022-10-17T09:32:33.133Z,26.00
2022-10-17T09:35:02.739Z,28.17
2022-10-17T09:37:33.589Z,26.43
2022-10-17T09:40:03.069Z,24.47
2022-10-17T09:42:33.882Z,26.57
2022-10-17T09:45:15.616Z,25.00
2022-10-17T09:50:24.439Z,25.73
2022-10-17T09:52:55.601Z,24.03
2022-10-17T09:55:32.412Z,22.73
2022-10-17T09:58:05.095Z,23.33
2022-10-17T10:00:36.723Z,20.83
2022-10-17T10:03:21.629Z,23.40
2022-10-17T10:06:03.087Z,21.40
2022-10-17T10:08:34.566Z,22.23
2022-10-17T10:11:06.566Z,22.83
2022-10-17T10:13:38.597Z,20.80
2022-10-17T10:16:18.790Z,24.27
2022-10-17T10:18:51.000Z,22.60
2022-10-17T10:21:22.277Z,22.53
2022-10-17T10:24:13.783Z,24.07
2022-10-17T10:26:45.219Z,21.90
2022-10-17T10:29:25.724Z,21.00
2022-10-17T10:31:55.737Z,22.43
2022-10-17T10:34:27.681Z,22.90
2022-10-17T10:37:03.055Z,22.33
2022-10-17T10:39:47.646Z,27.23
2022-10-17T10:42:26.894Z,23.87
2022-10-17T10:45:01.176Z,24.33
2022-10-17T10:47:33.647Z,22.33
2022-10-17T10:50:19.724Z,23.87
2022-10-17T10:52:52.687Z,23.23
2022-10-17T10:55:27.107Z,21.90
2022-10-17T10:58:01.779Z,24.23
2022-10-17T11:00:33.884Z,24.27
2022-10-17T11:03:12.957Z,22.50
2022-10-17T11:05:46.307Z,23.63
2022-10-17T11:08:21.391Z,25.33
2022-10-17T11:11:06.074Z,24.50
2022-10-17T11:13:40.941Z,22.90
2022-10-17T11:16:21.223Z,21.10
2022-10-17T11:18:52.722Z,22.27
2022-10-17T11:21:26.687Z,22.33
2022-10-17T11:24:04.582Z,20.83
2022-10-17T11:26:43.278Z,22.57
2022-10-17T11:29:13.897Z,21.47
2022-10-17T11:31:49.073Z,22.53
2022-10-17T11:34:22.128Z,20.90
2022-10-17T11:36:56.421Z,23.10
2022-10-17T11:39:30.690Z,22.33
2022-10-17T11:42:04.319Z,22.43
2022-10-17T11:44:37.381Z,21.13
2022-10-17T11:47:12.955Z,19.90
2022-10-17T11:49:49.978Z,23.00
2022-10-17T11:52:51.219Z,19.27
2022-10-17T11:55:22.564Z,20.57
2022-10-17T11:58:00.043Z,18.73
2022-10-17T12:00:40.865Z,22.70
2022-10-17T12:03:23.648Z,21.67
2022-10-17T12:05:57.479Z,22.10
2022-10-17T12:08:32.198Z,22.07
2022-10-17T12:11:04.871Z,22.77
2022-10-17T12:13:54.908Z,22.37
2022-10-17T12:16:51.565Z,21.90
2022-10-17T12:19:32.917Z,21.27
2022-10-17T12:22:06.227Z,21.80
2022-10-17T12:24:42.626Z,22.87
2022-10-17T12:27:46.093Z,22.93
2022-10-17T12:30:21.572Z,22.57
2022-10-17T12:33:06.757Z,22.00
2022-10-17T12:35:39.961Z,22.37
2022-10-17T12:38:30.920Z,23.60
2022-10-17T12:41:01.485Z,23.57
2022-10-17T12:46:54.886Z,25.10
2022-10-17T12:49:41.633Z,23.90
2022-10-17T12:52:29.603Z,25.87
2022-10-17T12:55:13.053Z,24.33
2022-10-17T12:57:53.035Z,24.33
2022-10-17T13:00:26.325Z,25.93
2022-10-17T13:02:57.841Z,24.30
2022-10-17T13:05:32.303Z,24.63
2022-10-17T13:08:06.453Z,26.07
2022-10-17T13:10:41.810Z,23.50
2022-10-17T13:13:17.932Z,26.13
2022-10-17T13:15:51.447Z,27.00
2022-10-17T13:18:23.082Z,25.93
2022-10-17T13:21:01.212Z,25.87
2022-10-17T13:23:38.556Z,23.90
2022-10-17T13:26:15.593Z,27.73
2022-10-17T13:28:45.020Z,24.53
2022-10-17T13:38:50.554Z,24.90
2022-10-17T13:41:35.376Z,25.70
2022-10-17T13:44:11.923Z,27.33
2022-10-17T13:46:41.805Z,26.50
2022-10-17T13:49:17.056Z,27.10
2022-10-17T13:51:47.911Z,27.50
2022-10-17T13:54:34.161Z,26.57
2022-10-17T13:57:04.949Z,27.07
2022-10-17T13:59:39.991Z,28.67
2022-10-17T14:02:16.068Z,28.10
2022-10-17T14:05:15.132Z,31.03
2022-10-17T14:08:05.620Z,29.57
2022-10-17T14:10:33.417Z,27.87
2022-10-17T14:13:04.366Z,30.67
2022-10-17T14:15:35.415Z,29.30
2022-10-17T14:18:07.959Z,28.00
2022-10-17T14:21:28.763Z,28.60
2022-10-17T14:23:33.310Z,27.27
2022-10-17T14:26:09.843Z,27.93
2022-10-17T14:28:39.727Z,29.97
2022-10-17T14:31:25.674Z,29.93
2022-10-17T14:33:56.013Z,29.27
2022-10-17T14:36:37.804Z,29.17
2022-10-17T14:39:14.158Z,30.30
2022-10-17T14:41:46.861Z,28.73
2022-10-17T14:44:21.188Z,32.00
2022-10-17T14:46:54.645Z,31.33
2022-10-17T14:49:29.079Z,29.10
2022-10-17T14:52:25.657Z,29.10
2022-10-17T14:54:55.197Z,29.87
2022-10-17T14:57:29.352Z,29.03
2022-10-17T14:59:59.087Z,30.57
2022-10-17T15:02:31.285Z,29.30
2022-10-17T15:05:00.958Z,27.80
2022-10-17T15:07:30.955Z,30.47
2022-10-17T15:10:00.632Z,30.10
2022-10-17T15:12:32.889Z,30.10
2022-10-17T15:15:02.391Z,31.60
2022-10-17T15:17:32.713Z,30.90
2022-10-17T15:20:02.342Z,28.63
2022-10-17T15:22:32.036Z,30.20
2022-10-17T15:25:01.439Z,30.40
2022-10-17T15:27:33.095Z,30.70
2022-10-17T15:30:02.804Z,31.20
2022-10-17T15:32:34.715Z,29.43
2022-10-17T15:35:04.176Z,27.47
2022-10-17T15:37:38.339Z,30.43
2022-10-17T15:40:08.746Z,27.60
2022-10-17T15:42:39.869Z,29.30
2022-10-17T15:45:10.949Z,29.20
2022-10-17T15:47:41.955Z,27.93
2022-10-17T15:50:15.403Z,31.60
2022-10-17T15:52:47.150Z,28.23
2022-10-17T15:55:16.907Z,27.30
2022-10-17T15:57:48.892Z,30.57
2022-10-17T16:00:20.987Z,31.57
2022-10-17T16:02:52.153Z,28.97
2022-10-17T16:05:23.746Z,29.67
2022-10-17T16:07:54.659Z,30.70
2022-10-17T16:10:26.027Z,31.97
2022-10-17T16:12:57.414Z,28.07
2022-10-17T16:15:28.338Z,28.90
2022-10-17T16:18:01.679Z,31.30
2022-10-17T16:20:33.678Z,30.97
2022-10-17T16:23:03.347Z,30.63
2022-10-17T16:25:33.245Z,30.37
2022-10-17T16:28:31.058Z,33.27
2022-10-17T16:31:00.423Z,32.57
2022-10-17T16:33:32.651Z,31.33
2022-10-17T16:36:03.418Z,31.63
2022-10-17T16:38:32.745Z,31.93
2022-10-17T16:41:02.400Z,34.90
2022-10-17T16:43:36.548Z,31.83
2022-10-17T16:46:06.123Z,35.80
2022-10-17T16:48:35.563Z,34.40
2022-10-17T16:51:05.163Z,34.63
2022-10-17T16:53:35.540Z,36.27
2022-10-17T16:56:06.778Z,35.37
2022-10-17T16:58:37.548Z,37.70
2022-10-17T17:01:09.151Z,35.83
2022-10-17T17:03:39.064Z,36.07
2022-10-17T17:06:09.594Z,34.13
2022-10-17T17:08:39.011Z,36.77
2022-10-17T17:11:09.225Z,35.73
2022-10-17T17:13:41.417Z,35.67
2022-10-17T17:16:12.753Z,35.90
2022-10-17T17:18:42.886Z,34.50
2022-10-17T17:21:13.477Z,34.77
2022-10-17T17:23:44.365Z,33.73
2022-10-17T17:26:16.161Z,35.73
2022-10-17T17:28:47.232Z,38.30
2022-10-17T17:31:19.658Z,39.37
2022-10-17T17:33:49.642Z,48.70
2022-10-17T17:36:22.273Z,48.47
2022-10-17T17:38:52.733Z,41.67
2022-10-17T17:41:22.383Z,38.90
2022-10-17T17:43:53.781Z,38.27
2022-10-17T17:46:24.666Z,36.87
2022-10-17T17:48:55.350Z,38.87
2022-10-17T17:51:29.443Z,38.63
2022-10-17T17:53:59.411Z,37.60
2022-10-17T17:56:30.451Z,35.77
2022-10-17T17:59:02.987Z,34.50
2022-10-17T18:01:37.112Z,35.73
2022-10-17T18:04:08.763Z,34.50
2022-10-17T18:06:42.036Z,37.50
2022-10-17T18:09:11.650Z,34.17
2022-10-17T18:11:42.116Z,35.40
2022-10-17T18:15:05.445Z,34.93
2022-10-17T18:17:39.859Z,38.13
2022-10-17T18:20:11.476Z,38.20
2022-10-17T18:22:41.780Z,36.83
2022-10-17T18:25:12.151Z,35.90
2022-10-17T18:27:43.156Z,35.43
2022-10-17T18:30:16.502Z,33.13
2022-10-17T18:32:48.151Z,34.50
2022-10-17T18:35:18.163Z,31.60
2022-10-17T18:37:47.699Z,31.60
2022-10-17T18:40:17.150Z,31.97
2022-10-17T18:42:46.810Z,31.20
2022-10-17T18:45:19.668Z,29.70
2022-10-17T18:47:53.085Z,34.70
2022-10-17T18:50:23.428Z,31.73
2022-10-17T18:52:54.119Z,28.40
2022-10-17T18:55:23.702Z,28.87
2022-10-17T18:57:54.058Z,28.07
2022-10-17T19:00:26.921Z,28.70
2022-10-17T19:02:58.144Z,26.93
2022-10-17T19:05:27.961Z,28.33
2022-10-17T19:07:58.650Z,29.53
2022-10-17T19:10:28.567Z,30.70
2022-10-17T19:12:59.338Z,29.53
2022-10-17T19:15:31.070Z,28.93
2022-10-17T19:18:01.391Z,28.73
2022-10-17T19:20:30.975Z,28.90
2022-10-17T19:23:02.408Z,30.87
2022-10-17T19:25:32.233Z,29.50
2022-10-17T19:28:02.225Z,28.10
2022-10-17T19:30:33.479Z,26.90
2022-10-17T19:33:03.977Z,30.00
2022-10-17T19:35:36.636Z,29.40
2022-10-17T19:38:06.267Z,26.43
2022-10-17T19:40:35.913Z,27.53
2022-10-17T19:43:05.312Z,26.03
2022-10-17T19:45:36.246Z,25.63
2022-10-17T19:48:09.149Z,25.10
2022-10-17T19:50:41.350Z,27.87
2022-10-17T19:53:10.769Z,28.43
2022-10-17T19:55:40.408Z,27.93
2022-10-17T19:58:10.079Z,29.33
2022-10-17T20:00:41.200Z,30.80
2022-10-17T20:03:10.695Z,30.00
2022-10-17T20:05:40.172Z,26.70
2022-10-17T20:08:09.590Z,27.77
2022-10-17T20:10:38.965Z,30.30
2022-10-17T20:13:08.401Z,28.10
2022-10-17T20:15:39.604Z,27.17
2022-10-17T20:18:10.343Z,26.77
2022-10-17T20:20:44.253Z,27.90
2022-10-17T20:23:14.387Z,26.50
2022-10-17T20:25:43.973Z,27.10
2022-10-17T20:28:16.107Z,25.23
2022-10-17T20:30:48.116Z,26.47
2022-10-17T20:33:17.414Z,26.30
2022-10-17T20:35:47.244Z,28.63
2022-10-17T20:38:17.361Z,29.27
2022-10-17T20:40:47.014Z,28.60
2022-10-17T20:43:16.349Z,30.00
2022-10-17T20:45:51.409Z,27.10
2022-10-17T20:48:21.702Z,25.77
2022-10-17T20:50:51.670Z,26.43
2022-10-17T20:53:36.440Z,27.13
2022-10-17T20:56:08.364Z,26.80
2022-10-17T20:58:37.922Z,26.60
2022-10-17T21:01:10.392Z,27.53
2022-10-17T21:03:45.721Z,27.63
2022-10-17T21:06:18.520Z,28.00
2022-10-17T21:08:48.368Z,24.60
2022-10-17T21:11:19.161Z,26.07
2022-10-17T21:13:49.100Z,26.83
2022-10-17T21:16:21.043Z,25.97
2022-10-17T21:18:50.856Z,27.17
2022-10-17T21:21:22.708Z,23.83
2022-10-17T21:23:52.703Z,26.47
2022-10-17T21:26:22.598Z,26.93
2022-10-17T21:28:51.737Z,26.10
2022-10-17T21:31:24.503Z,27.20
2022-10-17T21:33:55.430Z,26.53
2022-10-17T21:36:25.993Z,30.00
2022-10-17T21:38:57.069Z,23.77
2022-10-17T21:41:28.619Z,25.00
2022-10-17T21:44:00.424Z,25.70
2022-10-17T21:46:32.212Z,24.57
2022-10-17T21:49:02.726Z,25.00
2022-10-17T21:51:33.433Z,26.40
2022-10-17T21:54:05.776Z,24.90
2022-10-17T21:56:36.657Z,24.60
2022-10-17T21:59:06.603Z,25.87
2022-10-17T22:01:39.889Z,33.37
2022-10-17T22:04:11.929Z,24.53
2022-10-17T22:06:42.414Z,24.40
2022-10-17T22:09:15.517Z,23.43
2022-10-17T22:11:47.652Z,22.70
2022-10-17T22:14:19.486Z,23.83
2022-10-17T22:16:51.017Z,22.57
2022-10-17T22:19:23.131Z,24.30
2022-10-17T22:21:52.220Z,22.93
2022-10-17T22:24:23.027Z,23.87
2022-10-17T22:26:53.418Z,24.10
2022-10-17T22:29:23.409Z,22.93
2022-10-17T22:31:54.309Z,24.30
2022-10-17T22:34:23.951Z,23.33
2022-10-17T22:36:54.156Z,24.07
2022-10-17T22:39:24.644Z,23.43
2022-10-17T22:41:54.102Z,22.17
2022-10-17T22:44:23.617Z,23.80
2022-10-17T22:46:54.738Z,25.07
2022-10-17T22:49:24.144Z,23.10
2022-10-17T22:51:53.598Z,21.63
2022-10-17T22:54:23.033Z,22.13
2022-10-17T22:56:52.331Z,22.97
2022-10-17T22:59:21.546Z,21.20
2022-10-17T23:01:51.011Z,21.27
2022-10-17T23:04:21.869Z,20.57
2022-10-17T23:06:51.444Z,20.93
2022-10-17T23:09:21.043Z,21.03
2022-10-17T23:11:50.669Z,21.27
2022-10-17T23:14:20.113Z,21.20
2022-10-17T23:16:49.476Z,20.93
2022-10-17T23:19:20.389Z,21.20
2022-10-17T23:21:49.895Z,22.20
2022-10-17T23:24:19.238Z,20.13
2022-10-17T23:26:48.561Z,19.67
2022-10-17T23:29:18.599Z,20.70
2022-10-17T23:31:47.966Z,19.37
2022-10-17T23:34:17.336Z,18.73
2022-10-17T23:36:49.258Z,18.70
2022-10-17T23:39:18.207Z,18.73
2022-10-17T23:41:47.544Z,19.00
2022-10-17T23:44:16.910Z,18.30
2022-10-17T23:46:46.529Z,18.10
2022-10-17T23:49:16.040Z,19.20
2022-10-17T23:51:45.321Z,18.90
2022-10-17T23:54:16.815Z,18.37
2022-10-17T23:56:46.178Z,18.87
2022-10-17T23:59:17.365Z,20.97
